createdAt,value
2023-12-21T00:03:47.627Z,92
2023-12-21T00:08:53.728Z,92.5
2023-12-21T00:13:59.970Z,92
2023-12-21T00:19:05.900Z,92.5
2023-12-21T00:24:11.027Z,92.5
2023-12-21T00:29:17.157Z,92.5
2023-12-21T00:34:23.245Z,92
2023-12-21T00:39:29.342Z,92
2023-12-21T00:44:35.420Z,92.5
2023-12-21T00:49:41.555Z,92
2023-12-21T00:54:47.603Z,93
2023-12-21T00:59:53.798Z,93
2023-12-21T01:04:59.861Z,93
2023-12-21T01:15:12.229Z,93
2023-12-21T01:20:18.085Z,92.5
2023-12-21T01:25:24.298Z,93
2023-12-21T01:30:29.299Z,92.5
2023-12-21T01:35:35.406Z,93
2023-12-21T01:40:41.509Z,93.5
2023-12-21T01:45:47.592Z,93.5
2023-12-21T01:50:53.688Z,94.5
2023-12-21T01:55:59.786Z,94.5
2023-12-21T02:01:05.901Z,94.5
2023-12-21T02:06:11.975Z,95
2023-12-21T02:11:18.072Z,94.5
2023-12-21T02:16:24.169Z,94
2023-12-21T02:21:30.281Z,95
2023-12-21T02:26:36.363Z,94.5
2023-12-21T02:31:42.468Z,94
2023-12-21T02:36:47.588Z,95
2023-12-21T02:41:53.681Z,94.5
2023-12-21T02:46:59.771Z,94.5
2023-12-21T02:52:05.872Z,94.5
2023-12-21T02:57:12.036Z,95
2023-12-21T03:02:18.066Z,94.5
2023-12-21T03:07:24.160Z,94.5
2023-12-21T03:12:30.259Z,94
2023-12-21T03:17:36.356Z,93.5
2023-12-21T03:22:42.451Z,94
2023-12-21T03:27:48.551Z,94
2023-12-21T03:32:54.645Z,94.5
2023-12-21T03:38:00.765Z,94
2023-12-21T03:43:05.852Z,94
2023-12-21T03:48:11.954Z,93.5
2023-12-21T03:53:18.036Z,94
2023-12-21T03:58:24.146Z,93.5
2023-12-21T04:03:30.240Z,93.5
2023-12-21T04:08:36.330Z,93
2023-12-21T04:13:42.499Z,93.5
2023-12-21T04:18:48.528Z,93.5
2023-12-21T04:23:54.622Z,93
2023-12-21T04:29:00.733Z,92.5
2023-12-21T04:34:06.808Z,93
2023-12-21T04:39:12.911Z,93
2023-12-21T04:44:19.020Z,93
2023-12-21T04:49:24.197Z,93.5
2023-12-21T04:54:30.307Z,94
2023-12-21T04:59:36.297Z,95
2023-12-21T05:04:42.400Z,95
2023-12-21T05:09:48.512Z,95.5
2023-12-21T05:14:54.610Z,96
2023-12-21T05:20:00.701Z,96
2023-12-21T05:25:06.801Z,96.5
2023-12-21T05:30:12.884Z,96
2023-12-21T05:35:18.981Z,96.5
2023-12-21T05:40:25.100Z,96.5
2023-12-21T05:45:31.184Z,96
2023-12-21T05:50:37.269Z,96
2023-12-21T05:55:42.380Z,96
2023-12-21T06:00:48.484Z,96
2023-12-21T06:05:54.568Z,95.5
2023-12-21T06:11:00.668Z,96
2023-12-21T06:16:06.771Z,97
2023-12-21T06:21:12.870Z,96.5
2023-12-21T06:26:18.961Z,96
2023-12-21T06:31:25.142Z,95.5
2023-12-21T06:36:31.218Z,95.5
2023-12-21T06:41:37.254Z,96
2023-12-21T06:46:43.344Z,96.5
2023-12-21T06:51:49.442Z,97.5
2023-12-21T06:56:55.552Z,97.5
2023-12-21T07:02:00.733Z,98
2023-12-21T07:07:06.753Z,98
2023-12-21T07:12:12.912Z,98
2023-12-21T07:17:18.944Z,98.5
2023-12-21T07:22:25.021Z,98.5
2023-12-21T07:27:31.195Z,99
2023-12-21T07:32:37.250Z,99.5
2023-12-21T07:37:43.325Z,99.5
2023-12-21T07:42:48.424Z,99.5
2023-12-21T07:47:54.658Z,99.5
2023-12-21T07:53:00.617Z,99.5
2023-12-21T07:58:06.727Z,99.5
2023-12-21T08:03:12.820Z,99
2023-12-21T08:08:19.095Z,98.5
2023-12-21T08:13:25.070Z,97
2023-12-21T08:18:31.123Z,96.5
2023-12-21T08:23:37.201Z,95
2023-12-21T08:28:43.299Z,94
2023-12-21T08:33:49.396Z,92.5
2023-12-21T08:38:55.482Z,92
2023-12-21T08:44:01.651Z,91.5
2023-12-21T08:49:06.718Z,90.5
2023-12-21T08:54:12.777Z,90.5
2023-12-21T08:59:19.062Z,90
2023-12-21T09:04:24.965Z,89.5
2023-12-21T09:09:31.059Z,89.5
2023-12-21T09:14:37.156Z,89
2023-12-21T09:19:43.264Z,88.5
2023-12-21T09:24:49.349Z,88.5
2023-12-21T09:29:55.431Z,88.5
2023-12-21T09:35:01.555Z,89
2023-12-21T09:40:07.638Z,88.5
2023-12-21T09:45:13.823Z,88.5
2023-12-21T09:50:19.822Z,89
2023-12-21T09:55:25.017Z,88.5
2023-12-21T10:00:31.037Z,88.5
2023-12-21T10:05:37.384Z,88.5
2023-12-21T10:10:43.217Z,91.5
2023-12-21T10:15:49.309Z,92
2023-12-21T10:20:55.408Z,93.5
2023-12-21T10:26:01.514Z,94.5
2023-12-21T10:31:07.634Z,96.5
2023-12-21T10:41:19.799Z,98.5
2023-12-21T10:46:25.985Z,99
2023-12-21T10:51:32.023Z,98.5
2023-12-21T10:56:38.082Z,97.5
2023-12-21T11:01:43.189Z,96.5
2023-12-21T11:06:49.346Z,95.5
2023-12-21T11:11:55.392Z,97
2023-12-21T11:17:01.469Z,96.5
2023-12-21T11:22:07.560Z,96
2023-12-21T11:27:13.750Z,95
2023-12-21T11:32:19.759Z,95
2023-12-21T11:37:25.869Z,94
2023-12-21T11:42:31.951Z,94
2023-12-21T11:47:38.077Z,95.5
2023-12-21T11:52:44.142Z,94.5
2023-12-21T11:57:50.584Z,94
2023-12-21T12:02:56.346Z,93.5
2023-12-21T12:08:01.621Z,93
2023-12-21T12:13:07.597Z,93
2023-12-21T12:18:13.659Z,92.5
2023-12-21T12:23:19.732Z,91.5
2023-12-21T12:28:25.956Z,91.5
2023-12-21T12:33:31.942Z,92
2023-12-21T12:38:38.004Z,91.5
2023-12-21T12:43:44.113Z,90.5
2023-12-21T12:48:50.215Z,91
2023-12-21T12:53:56.303Z,91.5
2023-12-21T12:59:02.402Z,91
2023-12-21T13:04:08.477Z,91
2023-12-21T13:09:14.573Z,91.5
2023-12-21T13:14:19.728Z,92
2023-12-21T13:19:26.021Z,91.5
2023-12-21T13:24:32.203Z,93
2023-12-21T13:29:38.220Z,93
2023-12-21T13:34:44.383Z,93.5
2023-12-21T13:39:50.308Z,93.5
2023-12-21T13:44:56.273Z,92.5
2023-12-21T13:50:02.394Z,93.5
2023-12-21T13:55:08.700Z,95.5
2023-12-21T14:00:14.912Z,94
2023-12-21T14:05:20.642Z,94
2023-12-21T14:10:27.087Z,94.5
2023-12-21T14:15:33.003Z,93.5
2023-12-21T14:20:38.118Z,93
2023-12-21T14:25:44.112Z,94.5
2023-12-21T14:30:50.150Z,94.5
2023-12-21T14:35:56.459Z,93.5
2023-12-21T14:41:02.364Z,93
2023-12-21T14:46:08.477Z,92.5
2023-12-21T14:51:14.855Z,92.5
2023-12-21T14:56:20.796Z,92.5
2023-12-21T15:01:26.713Z,92
2023-12-21T15:06:32.962Z,91.5
2023-12-21T15:11:39.070Z,92.5
2023-12-21T15:16:45.284Z,92
2023-12-21T15:21:51.287Z,94
2023-12-21T15:26:56.261Z,96
2023-12-21T15:32:02.468Z,95
2023-12-21T15:37:08.405Z,94.5
2023-12-21T15:42:14.621Z,99
2023-12-21T15:47:20.798Z,99.5
2023-12-21T15:52:26.802Z,99.5
2023-12-21T15:57:32.881Z,99.5
2023-12-21T16:02:39.005Z,99.5
2023-12-21T16:07:45.272Z,99.5
2023-12-21T16:12:51.171Z,99.5
2023-12-21T16:23:03.509Z,99.5
2023-12-21T16:28:09.362Z,99.5
2023-12-21T16:33:14.730Z,99.5
2023-12-21T16:38:20.753Z,99.5
2023-12-21T16:43:26.715Z,99.5
2023-12-21T16:48:32.758Z,99.5
2023-12-21T16:53:38.918Z,99.5
2023-12-21T16:58:45.024Z,99.5
2023-12-21T17:03:51.100Z,99.5
2023-12-21T17:08:57.233Z,99.5
2023-12-21T17:14:03.539Z,99.5
2023-12-21T17:19:09.488Z,99.5
2023-12-21T17:24:15.617Z,99.5
2023-12-21T17:29:21.599Z,99.5
2023-12-21T17:34:27.654Z,98.5
2023-12-21T17:39:32.742Z,97
2023-12-21T17:44:38.887Z,96.5
2023-12-21T17:49:44.048Z,96
2023-12-21T17:54:49.086Z,95.5
2023-12-21T18:05:01.368Z,96.5
2023-12-21T18:10:07.376Z,96
2023-12-21T18:15:13.462Z,96.5
2023-12-21T18:20:19.669Z,94.5
2023-12-21T18:25:25.662Z,94
2023-12-21T18:30:31.753Z,89.5
2023-12-21T18:35:37.878Z,82.5
2023-12-21T18:40:44.030Z,83.5
2023-12-21T18:45:50.124Z,85
2023-12-21T18:50:56.197Z,84.5
2023-12-21T18:56:02.251Z,84.5
2023-12-21T19:01:07.423Z,85.5
2023-12-21T19:06:13.446Z,86
2023-12-21T19:11:19.606Z,86
2023-12-21T19:16:25.672Z,86.5
2023-12-21T19:21:31.783Z,87.5
2023-12-21T19:26:37.982Z,87.5
2023-12-21T19:31:44.088Z,89.5
2023-12-21T19:36:50.084Z,92
2023-12-21T19:41:56.254Z,93.5
2023-12-21T19:47:02.244Z,94.5
2023-12-21T19:52:08.355Z,95
2023-12-21T19:57:14.455Z,95
2023-12-21T20:02:20.511Z,94.5
2023-12-21T20:07:25.617Z,94
2023-12-21T20:12:31.769Z,94
2023-12-21T20:17:36.958Z,93
2023-12-21T20:22:41.939Z,93
2023-12-21T20:27:48.038Z,93
2023-12-21T20:32:54.150Z,93.5
2023-12-21T20:38:00.256Z,93
2023-12-21T20:43:06.386Z,93
2023-12-21T20:48:12.429Z,93.5
2023-12-21T20:53:18.632Z,93.5
2023-12-21T20:58:24.624Z,94.5
2023-12-21T21:03:30.705Z,94
2023-12-21T21:08:36.830Z,93.5
2023-12-21T21:13:42.948Z,93.5
2023-12-21T21:18:49.010Z,93.5
2023-12-21T21:23:55.097Z,93.5
2023-12-21T21:29:00.228Z,92.5
2023-12-21T21:34:06.347Z,92.5
2023-12-21T21:39:12.389Z,93.5
2023-12-21T21:44:18.614Z,92.5
2023-12-21T21:49:24.634Z,92
2023-12-21T21:54:30.678Z,91.5
2023-12-21T21:59:36.802Z,90
2023-12-21T22:04:42.873Z,90
2023-12-21T22:09:48.972Z,90.5
2023-12-21T22:14:55.111Z,91.5
2023-12-21T22:20:01.305Z,92
2023-12-21T22:25:07.266Z,92.5
2023-12-21T22:30:13.441Z,91
2023-12-21T22:35:18.483Z,91
2023-12-21T22:40:24.608Z,90.5
2023-12-21T22:45:30.741Z,90.5
2023-12-21T22:50:36.802Z,90
2023-12-21T22:55:42.854Z,90.5
2023-12-21T23:00:48.957Z,90
2023-12-21T23:05:55.045Z,91
2023-12-21T23:11:01.173Z,90
2023-12-21T23:16:07.282Z,90
2023-12-21T23:21:13.407Z,90.5
2023-12-21T23:26:19.634Z,90.5
2023-12-21T23:31:25.555Z,90.5
2023-12-21T23:36:31.639Z,90.5
2023-12-21T23:41:36.740Z,90.5
2023-12-21T23:46:42.828Z,88
2023-12-21T23:51:49.061Z,87
2023-12-21T23:56:55.082Z,87.5
